createdAt,value
2018-04-26T00:00:52.761Z,86.10
2018-04-26T00:01:59.058Z,86.39
2018-04-26T00:03:10.810Z,86.28
2018-04-26T00:04:19.998Z,86.47
2018-04-26T00:05:27.151Z,86.38
2018-04-26T00:06:35.186Z,86.90
2018-04-26T00:07:41.366Z,87.84
2018-04-26T00:08:47.584Z,87.78
2018-04-26T00:09:53.823Z,87.55
2018-04-26T00:10:59.798Z,87.18
2018-04-26T00:12:06.008Z,86.75
2018-04-26T00:13:12.230Z,86.54
2018-04-26T00:14:19.358Z,86.66
2018-04-26T00:15:25.710Z,86.50
2018-04-26T00:16:31.747Z,86.90
2018-04-26T00:17:38.103Z,87.38
2018-04-26T00:18:44.313Z,87.55
2018-04-26T00:19:50.530Z,87.36
2018-04-26T00:20:56.721Z,87.20
2018-04-26T00:22:02.930Z,87.52
2018-04-26T00:23:09.130Z,87.78
2018-04-26T00:24:15.342Z,87.88
2018-04-26T00:25:21.581Z,87.96
2018-04-26T00:26:32.953Z,87.79
2018-04-26T00:27:39.286Z,87.51
2018-04-26T00:28:45.496Z,87.19
2018-04-26T00:29:52.486Z,87.33
2018-04-26T00:30:58.455Z,87.36
2018-04-26T00:32:04.722Z,87.47
2018-04-26T00:33:10.958Z,87.79
2018-04-26T00:34:17.139Z,87.99
2018-04-26T00:35:23.392Z,87.88
2018-04-26T00:36:30.334Z,88.63
2018-04-26T00:37:36.619Z,88.64
2018-04-26T00:38:42.819Z,88.55
2018-04-26T00:39:49.065Z,88.17
2018-04-26T00:40:55.225Z,88.13
2018-04-26T00:42:01.442Z,88.12
2018-04-26T00:43:07.657Z,88.20
2018-04-26T00:44:14.859Z,88.32
2018-04-26T00:45:21.168Z,88.73
2018-04-26T00:46:27.615Z,88.81
2018-04-26T00:47:33.868Z,89.28
2018-04-26T00:48:40.110Z,89.19
2018-04-26T00:49:47.450Z,89.28
2018-04-26T00:50:54.284Z,88.52
2018-04-26T00:52:01.520Z,88.56
2018-04-26T00:53:07.765Z,89.80
2018-04-26T00:54:14.572Z,90.58
2018-04-26T00:55:20.796Z,90.18
2018-04-26T00:56:27.009Z,89.81
2018-04-26T00:57:34.173Z,89.82
2018-04-26T00:58:40.325Z,90.77
2018-04-26T00:59:46.326Z,92.17
2018-04-26T01:00:52.531Z,91.73
2018-04-26T01:02:00.671Z,91.10
2018-04-26T01:03:06.903Z,90.50
2018-04-26T01:04:13.119Z,89.94
2018-04-26T01:05:19.498Z,90.75
2018-04-26T01:06:25.875Z,90.96
2018-04-26T01:07:32.111Z,91.00
2018-04-26T01:08:38.359Z,90.52
2018-04-26T01:09:44.696Z,90.72
2018-04-26T01:10:52.669Z,91.04
2018-04-26T01:12:04.046Z,91.52
2018-04-26T01:13:10.267Z,91.36
2018-04-26T01:14:16.470Z,90.74
2018-04-26T01:15:22.692Z,90.92
2018-04-26T01:16:28.913Z,90.95
2018-04-26T01:17:35.191Z,90.31
2018-04-26T01:18:41.413Z,90.95
2018-04-26T01:19:47.746Z,90.71
2018-04-26T01:20:53.928Z,90.04
2018-04-26T01:22:00.151Z,90.51
2018-04-26T01:23:06.352Z,90.40
2018-04-26T01:24:12.552Z,90.34
2018-04-26T01:25:18.787Z,90.26
2018-04-26T01:26:24.976Z,90.17
2018-04-26T01:27:30.957Z,90.96
2018-04-26T01:28:42.688Z,89.90
2018-04-26T01:29:50.079Z,89.28
2018-04-26T01:30:56.289Z,89.02
2018-04-26T01:32:02.576Z,88.81
2018-04-26T01:33:12.883Z,88.75
2018-04-26T01:34:19.085Z,89.04
2018-04-26T01:35:25.310Z,89.04
2018-04-26T01:36:42.769Z,89.60
2018-04-26T01:37:48.889Z,90.30
2018-04-26T01:38:55.076Z,90.95
2018-04-26T01:40:01.798Z,90.51
2018-04-26T01:41:08.035Z,89.89
2018-04-26T01:42:14.307Z,89.20
2018-04-26T01:43:19.886Z,88.97
2018-04-26T01:44:26.155Z,89.48
2018-04-26T01:45:32.360Z,89.39
2018-04-26T01:46:38.649Z,89.49
2018-04-26T01:47:44.862Z,89.63
2018-04-26T01:48:51.074Z,89.41
2018-04-26T01:49:57.268Z,89.35
2018-04-26T01:51:03.562Z,88.99
2018-04-26T01:52:10.024Z,88.77
2018-04-26T01:53:16.250Z,88.61
2018-04-26T01:54:23.239Z,88.54
2018-04-26T01:55:29.472Z,88.20
2018-04-26T01:56:35.787Z,88.06
2018-04-26T01:57:41.789Z,87.94
2018-04-26T01:58:47.981Z,87.98
2018-04-26T01:59:56.016Z,88.26
2018-04-26T02:01:02.203Z,88.27
2018-04-26T02:02:08.136Z,87.38
2018-04-26T02:03:14.061Z,87.90
2018-04-26T02:04:20.592Z,87.27
2018-04-26T02:05:26.879Z,87.00
2018-04-26T02:06:33.111Z,86.60
2018-04-26T02:07:39.295Z,86.94
2018-04-26T02:08:45.598Z,85.32
2018-04-26T02:09:51.796Z,85.65
2018-04-26T02:10:58.043Z,86.20
2018-04-26T02:12:03.967Z,85.73
2018-04-26T02:13:10.238Z,86.05
2018-04-26T02:14:16.443Z,86.73
2018-04-26T02:15:24.959Z,85.29
2018-04-26T02:16:42.446Z,86.02
2018-04-26T02:17:49.198Z,86.25
2018-04-26T02:18:55.115Z,87.20
2018-04-26T02:20:01.152Z,87.21
2018-04-26T02:21:07.437Z,87.35
2018-04-26T02:22:13.598Z,87.96
2018-04-26T02:23:19.807Z,88.06
2018-04-26T02:24:26.219Z,87.53
2018-04-26T02:25:32.428Z,86.25
2018-04-26T02:26:38.682Z,86.22
2018-04-26T02:27:44.899Z,86.46
2018-04-26T02:28:51.219Z,85.63
2018-04-26T02:29:57.373Z,85.83
2018-04-26T02:31:05.295Z,85.86
2018-04-26T02:32:11.740Z,86.86
2018-04-26T02:33:18.131Z,86.39
2018-04-26T02:34:25.059Z,86.03
2018-04-26T02:35:30.999Z,85.78
2018-04-26T02:36:37.351Z,85.34
2018-04-26T02:37:44.710Z,85.51
2018-04-26T02:38:50.963Z,85.19
2018-04-26T02:39:57.279Z,84.65
2018-04-26T02:41:04.763Z,83.89
2018-04-26T02:42:12.439Z,83.86
2018-04-26T02:43:18.415Z,82.98
2018-04-26T02:44:24.664Z,83.83
2018-04-26T02:45:30.467Z,83.91
2018-04-26T02:46:40.480Z,84.13
2018-04-26T02:47:46.657Z,84.27
2018-04-26T02:48:53.062Z,84.37
2018-04-26T02:49:58.972Z,84.11
2018-04-26T02:51:05.179Z,84.82
2018-04-26T02:52:11.564Z,84.95
2018-04-26T02:53:18.036Z,85.06
2018-04-26T02:54:24.248Z,84.92
2018-04-26T02:55:33.429Z,84.62
2018-04-26T02:56:41.204Z,84.50
2018-04-26T02:57:47.470Z,83.85
2018-04-26T02:58:53.670Z,83.35
2018-04-26T03:00:00.003Z,83.46
2018-04-26T03:01:06.248Z,83.66
2018-04-26T03:02:14.044Z,84.15
2018-04-26T03:03:22.072Z,84.93
2018-04-26T03:04:28.316Z,84.85
2018-04-26T03:05:34.731Z,84.73
2018-04-26T03:06:40.782Z,84.31
2018-04-26T03:07:47.268Z,84.22
2018-04-26T03:08:53.466Z,83.74
2018-04-26T03:09:59.783Z,83.62
2018-04-26T03:11:06.134Z,83.20
2018-04-26T03:12:12.055Z,83.02
2018-04-26T03:13:19.299Z,83.67
2018-04-26T03:14:25.211Z,84.60
2018-04-26T03:15:31.511Z,85.02
2018-04-26T03:16:38.220Z,85.09
2018-04-26T03:17:46.406Z,84.89
2018-04-26T03:18:54.262Z,85.04
2018-04-26T03:20:00.476Z,85.99
2018-04-26T03:21:06.776Z,87.05
2018-04-26T03:22:12.988Z,86.84
2018-04-26T03:23:19.208Z,87.15
2018-04-26T03:24:25.444Z,86.67
2018-04-26T03:25:32.193Z,86.62
2018-04-26T03:26:38.472Z,86.30
2018-04-26T03:27:44.744Z,86.38
2018-04-26T03:28:51.544Z,86.89
2018-04-26T03:29:57.928Z,86.75
2018-04-26T03:31:05.445Z,87.07
2018-04-26T03:32:12.951Z,87.66
2018-04-26T03:33:20.965Z,87.92
2018-04-26T03:34:29.505Z,87.54
2018-04-26T03:35:35.812Z,87.71
2018-04-26T03:36:41.992Z,87.58
2018-04-26T03:37:50.002Z,87.28
2018-04-26T03:38:56.639Z,87.12
2018-04-26T03:40:03.334Z,87.55
2018-04-26T03:41:09.811Z,87.50
2018-04-26T03:42:16.223Z,87.53
2018-04-26T03:43:22.703Z,88.20
2018-04-26T03:44:29.186Z,88.04
2018-04-26T03:45:35.457Z,88.39
2018-04-26T03:46:41.825Z,88.52
2018-04-26T03:47:48.131Z,88.95
2018-04-26T03:48:55.138Z,88.67
2018-04-26T03:50:01.865Z,88.10
2018-04-26T03:51:08.159Z,87.59
2018-04-26T03:52:14.032Z,87.53
2018-04-26T03:53:20.280Z,87.39
2018-04-26T03:54:26.475Z,87.01
2018-04-26T03:55:33.361Z,86.93
2018-04-26T03:56:39.710Z,87.43
2018-04-26T03:57:45.941Z,87.70
2018-04-26T03:58:57.833Z,87.56
2018-04-26T04:00:20.417Z,88.04
2018-04-26T04:01:37.458Z,87.96
2018-04-26T04:02:54.498Z,88.37
2018-04-26T04:05:53.785Z,88.28
2018-04-26T04:07:00.050Z,88.07
2018-04-26T04:08:06.291Z,87.64
2018-04-26T04:09:12.478Z,87.86
2018-04-26T04:10:21.212Z,88.42
2018-04-26T04:11:29.263Z,88.54
2018-04-26T04:12:35.872Z,88.52
2018-04-26T04:13:42.848Z,88.66
2018-04-26T04:14:50.753Z,89.19
2018-04-26T04:15:59.610Z,89.07
2018-04-26T04:17:05.989Z,88.77
2018-04-26T04:18:12.328Z,89.04
2018-04-26T04:19:20.238Z,89.02
2018-04-26T04:20:27.959Z,88.61
2018-04-26T04:21:35.138Z,88.78
2018-04-26T04:22:41.440Z,88.67
2018-04-26T04:23:48.458Z,88.75
2018-04-26T04:24:54.752Z,88.55
2018-04-26T04:26:02.240Z,88.69
2018-04-26T04:27:08.303Z,88.39
2018-04-26T04:28:14.516Z,88.29
2018-04-26T04:29:20.707Z,88.02
2018-04-26T04:30:26.949Z,87.79
2018-04-26T04:31:34.211Z,88.19
2018-04-26T04:32:40.501Z,88.74
2018-04-26T04:33:46.910Z,88.43
2018-04-26T04:34:53.223Z,88.19
2018-04-26T04:35:59.530Z,88.09
2018-04-26T04:37:05.823Z,88.62
2018-04-26T04:38:12.016Z,88.34
2018-04-26T04:39:18.244Z,88.32
2018-04-26T04:40:24.547Z,87.92
2018-04-26T04:41:31.251Z,87.76
2018-04-26T04:42:37.501Z,88.62
2018-04-26T04:43:43.899Z,89.31
2018-04-26T04:44:50.326Z,89.00
2018-04-26T04:45:56.628Z,88.87
2018-04-26T04:47:02.839Z,88.75
2018-04-26T04:48:09.074Z,88.53
2018-04-26T04:49:15.390Z,88.18
2018-04-26T04:50:21.680Z,87.75
2018-04-26T04:51:27.943Z,87.89
2018-04-26T04:52:34.148Z,87.68
2018-04-26T04:53:40.437Z,87.71
2018-04-26T04:54:46.715Z,87.62
2018-04-26T04:55:53.087Z,87.52
2018-04-26T04:56:59.374Z,87.97
2018-04-26T04:58:05.800Z,87.81
2018-04-26T04:59:12.944Z,88.00
2018-04-26T05:00:19.669Z,87.16
2018-04-26T05:01:26.391Z,87.12
2018-04-26T05:02:33.382Z,86.91
2018-04-26T05:03:39.758Z,86.17
2018-04-26T05:04:47.018Z,86.00
2018-04-26T05:05:53.627Z,85.84
2018-04-26T05:07:00.863Z,85.54
2018-04-26T05:08:07.089Z,85.36
2018-04-26T05:09:13.381Z,85.17
2018-04-26T05:10:19.724Z,84.04
2018-04-26T05:11:26.017Z,83.65
2018-04-26T05:12:32.318Z,84.11
2018-04-26T05:13:39.356Z,84.15
2018-04-26T05:14:45.547Z,83.97
2018-04-26T05:15:51.755Z,84.38
2018-04-26T05:16:57.969Z,84.34
2018-04-26T05:18:04.315Z,83.67
2018-04-26T05:19:10.523Z,83.52
2018-04-26T05:20:16.811Z,82.67
2018-04-26T05:21:23.123Z,83.07
2018-04-26T05:22:32.348Z,82.76
2018-04-26T05:23:39.658Z,82.70
2018-04-26T05:24:45.931Z,82.78
2018-04-26T05:25:53.395Z,82.27
2018-04-26T05:26:59.774Z,82.61
2018-04-26T05:28:05.982Z,82.05
2018-04-26T05:29:13.346Z,81.43
2018-04-26T05:30:19.636Z,81.51
2018-04-26T05:31:25.926Z,81.44
2018-04-26T05:32:32.228Z,80.91
2018-04-26T05:33:38.638Z,80.68
2018-04-26T05:34:44.901Z,80.16
2018-04-26T05:35:51.300Z,79.81
2018-04-26T05:36:59.150Z,79.56
2018-04-26T05:38:06.763Z,79.42
2018-04-26T05:39:14.195Z,79.27
2018-04-26T05:40:20.434Z,78.95
2018-04-26T05:41:26.648Z,79.48
2018-04-26T05:42:32.958Z,78.58
2018-04-26T05:43:39.191Z,78.62
2018-04-26T05:44:45.471Z,77.70
2018-04-26T05:45:52.811Z,77.75
2018-04-26T05:46:59.170Z,77.82
2018-04-26T05:48:05.360Z,77.61
2018-04-26T05:49:11.666Z,77.56
2018-04-26T05:50:17.769Z,77.39
2018-04-26T05:51:24.102Z,77.12
2018-04-26T05:52:30.370Z,77.01
2018-04-26T05:53:38.200Z,77.18
2018-04-26T05:54:45.459Z,77.36
2018-04-26T05:55:51.987Z,77.37
2018-04-26T05:56:58.370Z,76.98
2018-04-26T05:58:04.600Z,76.39
2018-04-26T05:59:10.819Z,76.44
2018-04-26T06:00:17.139Z,77.37
2018-04-26T06:01:23.143Z,76.74
2018-04-26T06:02:29.580Z,77.04
2018-04-26T06:03:35.894Z,77.16
2018-04-26T06:04:42.204Z,76.75
2018-04-26T06:05:49.318Z,76.76
2018-04-26T06:06:55.611Z,76.88
2018-04-26T06:08:01.922Z,76.31
2018-04-26T06:09:08.345Z,76.85
2018-04-26T06:10:16.173Z,77.03
2018-04-26T06:11:22.614Z,76.48
2018-04-26T06:12:29.094Z,76.37
2018-04-26T06:13:35.282Z,76.34
2018-04-26T06:14:41.323Z,75.69
2018-04-26T06:15:47.503Z,75.60
2018-04-26T06:16:53.755Z,74.48
2018-04-26T06:18:00.031Z,74.60
2018-04-26T06:19:06.382Z,74.48
2018-04-26T06:20:13.410Z,74.13
2018-04-26T06:21:19.711Z,73.32
2018-04-26T06:22:26.011Z,73.63
2018-04-26T06:23:32.291Z,73.10
2018-04-26T06:24:38.540Z,72.35
2018-04-26T06:25:45.018Z,72.47
2018-04-26T06:26:53.935Z,71.92
2018-04-26T06:28:00.227Z,72.19
2018-04-26T06:29:06.432Z,70.96
2018-04-26T06:30:12.751Z,70.82
2018-04-26T06:31:19.297Z,70.32
2018-04-26T06:32:25.612Z,69.22
2018-04-26T06:33:32.399Z,68.79
2018-04-26T06:34:38.671Z,68.73
2018-04-26T06:35:44.696Z,69.43
2018-04-26T06:36:51.086Z,69.16
2018-04-26T06:37:58.125Z,68.79
2018-04-26T06:39:03.691Z,68.77
2018-04-26T06:40:09.659Z,67.52
2018-04-26T06:41:15.871Z,67.03
2018-04-26T06:42:22.077Z,66.89
2018-04-26T06:43:28.467Z,67.00
2018-04-26T06:44:34.746Z,67.14
2018-04-26T06:45:41.190Z,66.81
2018-04-26T06:46:49.863Z,68.12
2018-04-26T06:47:56.118Z,66.83
2018-04-26T06:49:02.499Z,66.50
2018-04-26T06:50:08.737Z,66.34
2018-04-26T06:51:15.048Z,66.63
2018-04-26T06:52:21.343Z,66.88
2018-04-26T06:53:27.652Z,66.74
2018-04-26T06:54:34.688Z,66.50
2018-04-26T06:55:41.007Z,65.75
2018-04-26T06:56:47.310Z,66.49
2018-04-26T06:57:53.606Z,66.04
2018-04-26T06:58:59.816Z,66.30
2018-04-26T07:00:05.734Z,66.45
2018-04-26T07:01:14.598Z,66.55
2018-04-26T07:02:22.067Z,66.53
2018-04-26T07:03:28.123Z,65.88
2018-04-26T07:04:34.382Z,65.07
2018-04-26T07:05:40.724Z,65.59
2018-04-26T07:06:47.192Z,65.43
2018-04-26T07:08:04.471Z,66.20
2018-04-26T07:09:11.760Z,65.74
2018-04-26T07:10:18.034Z,65.29
2018-04-26T07:11:24.308Z,65.15
2018-04-26T07:12:30.581Z,65.77
2018-04-26T07:13:36.851Z,65.50
2018-04-26T07:14:43.131Z,65.66
2018-04-26T07:15:49.375Z,65.62
2018-04-26T07:16:55.620Z,65.77
2018-04-26T07:18:01.863Z,65.04
2018-04-26T07:19:08.165Z,65.26
2018-04-26T07:20:14.394Z,64.76
2018-04-26T07:21:20.696Z,64.40
2018-04-26T07:22:26.906Z,64.88
2018-04-26T07:23:33.111Z,63.83
2018-04-26T07:24:39.324Z,64.05
2018-04-26T07:25:45.578Z,63.13
2018-04-26T07:26:51.852Z,63.48
2018-04-26T07:27:58.131Z,63.83
2018-04-26T07:29:06.842Z,63.86
2018-04-26T07:30:18.028Z,63.87
2018-04-26T07:31:24.269Z,63.43
2018-04-26T07:32:31.270Z,63.20
2018-04-26T07:33:37.547Z,63.32
2018-04-26T07:34:43.985Z,63.51
2018-04-26T07:35:50.267Z,64.17
2018-04-26T07:36:56.539Z,64.61
2018-04-26T07:38:02.862Z,64.08
2018-04-26T07:39:09.174Z,64.36
2018-04-26T07:40:15.211Z,64.27
2018-04-26T07:41:22.198Z,63.89
2018-04-26T07:42:28.391Z,64.27
2018-04-26T07:43:34.901Z,64.58
2018-04-26T07:44:41.115Z,64.88
2018-04-26T07:45:47.363Z,65.18
2018-04-26T07:46:53.423Z,64.86
2018-04-26T07:48:00.550Z,64.69
2018-04-26T07:49:07.196Z,65.16
2018-04-26T07:50:13.199Z,65.03
2018-04-26T07:51:21.981Z,64.92
2018-04-26T07:52:28.274Z,64.57
2018-04-26T07:53:34.478Z,64.45
2018-04-26T07:54:40.796Z,65.59
2018-04-26T07:55:48.085Z,64.36
2018-04-26T07:56:54.259Z,65.03
2018-04-26T07:58:00.547Z,64.53
2018-04-26T07:59:06.758Z,64.92
2018-04-26T08:00:13.195Z,64.80
2018-04-26T08:01:19.500Z,64.79
2018-04-26T08:02:26.402Z,64.49
2018-04-26T08:03:33.823Z,63.96
2018-04-26T08:04:41.221Z,64.18
2018-04-26T08:05:47.936Z,63.87
2018-04-26T08:06:54.212Z,63.58
2018-04-26T08:08:00.548Z,63.65
2018-04-26T08:09:05.954Z,63.56
2018-04-26T08:10:12.235Z,64.15
2018-04-26T08:11:19.937Z,64.08
2018-04-26T08:12:26.118Z,63.72
2018-04-26T08:13:32.160Z,64.74
2018-04-26T08:14:38.390Z,63.26
2018-04-26T08:15:44.621Z,63.20
2018-04-26T08:16:50.918Z,62.57
2018-04-26T08:17:57.138Z,62.89
2018-04-26T08:19:03.333Z,62.67
2018-04-26T08:20:09.281Z,62.22
2018-04-26T08:21:15.575Z,62.27
2018-04-26T08:22:21.859Z,62.05
2018-04-26T08:23:28.960Z,62.54
2018-04-26T08:24:35.201Z,62.51
2018-04-26T08:25:41.412Z,62.06
2018-04-26T08:26:47.971Z,61.51
2018-04-26T08:27:54.274Z,61.28
2018-04-26T08:29:01.117Z,61.97
2018-04-26T08:30:07.383Z,61.52
2018-04-26T08:31:13.241Z,61.95
2018-04-26T08:32:19.530Z,62.11
2018-04-26T08:33:25.790Z,61.42
2018-04-26T08:34:32.423Z,62.18
2018-04-26T08:35:38.607Z,62.40
2018-04-26T08:36:44.913Z,62.27
2018-04-26T08:37:51.971Z,62.54
2018-04-26T08:38:58.158Z,62.85
2018-04-26T08:40:03.843Z,62.92
2018-04-26T08:41:10.114Z,63.85
2018-04-26T08:42:16.288Z,63.49
2018-04-26T08:43:22.470Z,63.33
2018-04-26T08:44:28.723Z,63.57
2018-04-26T08:45:35.130Z,64.51
2018-04-26T08:46:41.510Z,64.55
2018-04-26T08:47:47.761Z,65.10
2018-04-26T08:48:54.074Z,64.58
2018-04-26T08:50:00.291Z,64.91
2018-04-26T08:51:07.191Z,64.92
2018-04-26T08:52:13.492Z,64.77
2018-04-26T08:53:20.145Z,65.40
2018-04-26T08:54:26.459Z,65.44
2018-04-26T08:55:35.061Z,65.26
2018-04-26T08:56:42.032Z,65.93
2018-04-26T08:57:49.066Z,65.69
2018-04-26T08:58:55.583Z,66.17
2018-04-26T09:00:01.791Z,66.09
2018-04-26T09:01:08.024Z,66.37
2018-04-26T09:02:14.943Z,66.94
2018-04-26T09:03:21.276Z,67.06
2018-04-26T09:04:27.529Z,66.97
2018-04-26T09:05:34.408Z,66.42
2018-04-26T09:06:41.164Z,66.13
2018-04-26T09:07:47.503Z,65.68
2018-04-26T09:08:54.138Z,66.33
2018-04-26T09:10:00.480Z,65.70
2018-04-26T09:11:08.820Z,66.38
2018-04-26T09:12:16.270Z,66.23
2018-04-26T09:13:22.535Z,66.61
2018-04-26T09:14:30.676Z,66.63
2018-04-26T09:15:37.017Z,66.99
2018-04-26T09:16:43.238Z,66.59
2018-04-26T09:17:49.596Z,66.10
2018-04-26T09:18:56.336Z,66.01
2018-04-26T09:20:02.319Z,65.69
2018-04-26T09:21:08.587Z,65.61
2018-04-26T09:22:14.782Z,65.34
2018-04-26T09:23:20.986Z,65.25
2018-04-26T09:24:27.178Z,64.65
2018-04-26T09:25:33.410Z,64.92
2018-04-26T09:26:41.954Z,64.76
2018-04-26T09:27:51.178Z,65.21
2018-04-26T09:28:58.079Z,64.99
2018-04-26T09:30:03.697Z,65.08
2018-04-26T09:31:10.178Z,64.26
2018-04-26T09:32:16.398Z,64.13
2018-04-26T09:33:22.611Z,64.60
2018-04-26T09:34:29.306Z,63.96
2018-04-26T09:35:35.302Z,63.97
2018-04-26T09:36:41.554Z,64.14
2018-04-26T09:37:47.718Z,63.62
2018-04-26T09:38:54.154Z,63.94
2018-04-26T09:40:00.338Z,63.84
2018-04-26T09:41:06.634Z,63.58
2018-04-26T09:42:12.888Z,63.60
2018-04-26T09:43:20.616Z,63.40
2018-04-26T09:44:26.487Z,63.01
2018-04-26T09:45:33.362Z,64.06
2018-04-26T09:46:39.564Z,63.33
2018-04-26T09:47:45.806Z,63.96
2018-04-26T09:48:52.635Z,63.91
2018-04-26T09:49:58.915Z,64.26
2018-04-26T09:51:05.243Z,63.49
2018-04-26T09:52:11.630Z,62.37
2018-04-26T09:53:17.849Z,62.79
2018-04-26T09:54:24.026Z,62.89
2018-04-26T09:55:32.955Z,62.12
2018-04-26T09:56:45.750Z,62.17
2018-04-26T09:57:52.835Z,61.68
2018-04-26T09:59:00.387Z,61.44
2018-04-26T10:00:06.710Z,61.59
2018-04-26T10:01:12.730Z,61.85
2018-04-26T10:02:18.878Z,61.39
2018-04-26T10:03:27.728Z,61.71
2018-04-26T10:04:39.311Z,61.78
2018-04-26T10:05:51.023Z,62.10
2018-04-26T10:07:00.148Z,62.05
2018-04-26T10:08:06.354Z,62.20
2018-04-26T10:09:12.634Z,61.88
2018-04-26T10:10:18.939Z,62.10
2018-04-26T10:11:25.158Z,62.98
2018-04-26T10:12:31.493Z,61.75
2018-04-26T10:13:37.759Z,61.08
2018-04-26T10:14:43.927Z,61.38
2018-04-26T10:15:50.184Z,60.77
2018-04-26T10:16:56.442Z,60.92
2018-04-26T10:18:02.921Z,60.73
2018-04-26T10:19:09.110Z,60.41
2018-04-26T10:20:15.331Z,59.63
2018-04-26T10:21:21.870Z,59.51
2018-04-26T10:22:28.148Z,58.89
2018-04-26T10:23:35.019Z,58.93
2018-04-26T10:24:41.294Z,59.35
2018-04-26T10:25:47.607Z,60.11
2018-04-26T10:26:54.531Z,60.75
2018-04-26T10:28:00.782Z,61.22
2018-04-26T10:29:09.991Z,61.13
2018-04-26T10:30:16.159Z,62.29
2018-04-26T10:31:22.444Z,62.56
2018-04-26T10:32:28.683Z,62.97
2018-04-26T10:33:35.498Z,63.26
2018-04-26T10:34:41.804Z,62.32
2018-04-26T10:35:48.883Z,63.09
2018-04-26T10:36:55.726Z,62.26
2018-04-26T10:38:02.076Z,62.39
2018-04-26T10:39:08.360Z,60.74
2018-04-26T10:40:14.554Z,60.74
2018-04-26T10:41:22.417Z,60.40
2018-04-26T10:42:28.676Z,60.22
2018-04-26T10:43:34.927Z,60.94
2018-04-26T10:44:42.516Z,61.40
2018-04-26T10:45:49.626Z,62.46
2018-04-26T10:46:56.536Z,63.43
2018-04-26T10:48:02.763Z,64.70
2018-04-26T10:49:09.040Z,65.02
2018-04-26T10:50:15.348Z,66.64
2018-04-26T10:51:21.707Z,67.41
2018-04-26T10:52:28.019Z,68.54
2018-04-26T10:53:34.319Z,71.52
2018-04-26T10:54:40.630Z,74.18
2018-04-26T10:55:46.886Z,76.84
2018-04-26T10:56:53.134Z,79.48
2018-04-26T10:57:59.471Z,79.80
2018-04-26T10:59:05.750Z,80.41
2018-04-26T11:00:12.959Z,79.94
2018-04-26T11:01:20.075Z,78.46
2018-04-26T11:02:26.323Z,79.79
2018-04-26T11:03:32.647Z,80.13
2018-04-26T11:04:38.959Z,78.44
2018-04-26T11:05:45.191Z,78.69
2018-04-26T11:06:51.467Z,78.08
2018-04-26T11:07:57.367Z,81.04
2018-04-26T11:09:03.560Z,76.58
2018-04-26T11:10:09.791Z,76.31
2018-04-26T11:11:16.107Z,75.54
2018-04-26T11:12:22.518Z,73.53
2018-04-26T11:13:28.745Z,74.95
2018-04-26T11:14:35.043Z,72.61
2018-04-26T11:15:41.316Z,71.64
2018-04-26T11:16:47.662Z,72.57
2018-04-26T11:17:54.448Z,73.56
2018-04-26T11:19:01.431Z,72.73
2018-04-26T11:20:07.605Z,71.40
2018-04-26T11:21:14.386Z,70.46
2018-04-26T11:22:20.957Z,70.70
2018-04-26T11:23:27.213Z,70.65
2018-04-26T11:24:33.423Z,70.47
2018-04-26T11:25:40.383Z,70.28
2018-04-26T11:26:46.291Z,70.89
2018-04-26T11:27:52.522Z,70.18
2018-04-26T11:28:58.758Z,70.83
2018-04-26T11:30:04.356Z,69.31
2018-04-26T11:31:10.634Z,69.76
2018-04-26T11:32:16.835Z,68.80
2018-04-26T11:33:23.073Z,69.20
2018-04-26T11:34:29.368Z,68.31
2018-04-26T11:35:35.701Z,67.53
2018-04-26T11:36:44.287Z,67.55
2018-04-26T11:37:51.270Z,68.23
2018-04-26T11:38:58.135Z,67.21
2018-04-26T11:40:07.762Z,66.21
2018-04-26T11:41:14.091Z,66.89
2018-04-26T11:42:20.330Z,66.04
2018-04-26T11:43:26.674Z,66.48
2018-04-26T11:44:32.934Z,65.80
2018-04-26T11:45:39.116Z,65.72
2018-04-26T11:46:45.367Z,66.07
2018-04-26T11:47:51.883Z,66.53
2018-04-26T11:48:59.028Z,66.37
2018-04-26T11:50:05.307Z,65.55
2018-04-26T11:51:11.384Z,65.16
2018-04-26T11:52:20.189Z,66.10
2018-04-26T11:53:27.182Z,65.43
2018-04-26T11:54:33.594Z,64.86
2018-04-26T11:55:40.317Z,65.11
2018-04-26T11:56:53.021Z,66.03
2018-04-26T11:57:59.440Z,65.70
2018-04-26T11:59:05.774Z,65.34
2018-04-26T12:00:12.624Z,65.11
2018-04-26T12:01:19.680Z,65.29
2018-04-26T12:02:26.704Z,64.95
2018-04-26T12:03:33.914Z,64.31
2018-04-26T12:04:41.864Z,63.72
2018-04-26T12:05:49.100Z,64.25
2018-04-26T12:06:56.435Z,63.91
2018-04-26T12:08:03.566Z,62.69
2018-04-26T12:09:10.691Z,63.32
2018-04-26T12:10:17.719Z,62.71
2018-04-26T12:11:26.140Z,61.67
2018-04-26T12:12:32.653Z,62.13
2018-04-26T12:13:39.505Z,61.13
2018-04-26T12:14:45.906Z,61.71
2018-04-26T12:15:52.184Z,61.99
2018-04-26T12:16:58.586Z,61.18
2018-04-26T12:18:04.794Z,61.65
2018-04-26T12:19:12.571Z,61.97
2018-04-26T12:20:19.132Z,61.15
2018-04-26T12:21:30.044Z,61.49
2018-04-26T12:22:40.443Z,61.38
2018-04-26T12:23:46.733Z,61.29
2018-04-26T12:24:53.035Z,61.14
2018-04-26T12:25:59.350Z,60.80
2018-04-26T12:27:05.652Z,60.46
2018-04-26T12:28:11.987Z,60.94
2018-04-26T12:29:18.342Z,61.58
2018-04-26T12:30:24.887Z,60.54
2018-04-26T12:31:31.461Z,61.35
2018-04-26T12:32:37.676Z,61.33
2018-04-26T12:33:43.778Z,61.47
2018-04-26T12:34:50.627Z,61.99
2018-04-26T12:35:56.834Z,61.14
2018-04-26T12:37:03.179Z,61.41
2018-04-26T12:38:09.231Z,62.05
2018-04-26T12:39:15.619Z,60.94
2018-04-26T12:40:21.899Z,60.57
2018-04-26T12:41:28.161Z,61.08
2018-04-26T12:42:34.406Z,60.98
2018-04-26T12:43:40.617Z,61.06
2018-04-26T12:44:46.951Z,61.30
2018-04-26T12:45:53.817Z,62.19
2018-04-26T12:46:59.944Z,62.19
2018-04-26T12:48:06.201Z,62.36
2018-04-26T12:49:13.125Z,62.70
2018-04-26T12:50:19.495Z,63.30
2018-04-26T12:51:26.754Z,63.16
2018-04-26T12:52:33.094Z,62.93
2018-04-26T12:53:39.368Z,60.32
2018-04-26T12:54:46.467Z,60.02
2018-04-26T12:55:52.656Z,60.67
2018-04-26T12:56:58.862Z,59.53
2018-04-26T12:58:05.882Z,59.72
2018-04-26T12:59:12.387Z,58.94
2018-04-26T13:00:19.282Z,58.65
2018-04-26T13:01:25.515Z,57.44
2018-04-26T13:02:32.685Z,56.62
2018-04-26T13:03:38.886Z,56.48
2018-04-26T13:04:45.379Z,55.78
2018-04-26T13:05:51.785Z,55.36
2018-04-26T13:06:58.319Z,53.37
2018-04-26T13:08:04.842Z,53.13
2018-04-26T13:09:11.075Z,54.91
2018-04-26T13:10:18.683Z,54.74
2018-04-26T13:11:26.908Z,54.39
2018-04-26T13:12:34.675Z,53.56
2018-04-26T13:13:41.130Z,55.18
2018-04-26T13:14:48.087Z,53.56
2018-04-26T13:15:54.459Z,54.59
2018-04-26T13:17:00.690Z,54.99
2018-04-26T13:18:07.880Z,56.26
2018-04-26T13:19:14.906Z,55.28
2018-04-26T13:20:21.233Z,56.27
2018-04-26T13:21:27.565Z,56.91
2018-04-26T13:22:35.508Z,57.04
2018-04-26T13:23:42.720Z,56.16
2018-04-26T13:24:50.287Z,56.01
2018-04-26T13:25:59.746Z,57.11
2018-04-26T13:27:08.075Z,57.12
2018-04-26T13:28:14.383Z,57.00
2018-04-26T13:29:20.359Z,56.09
2018-04-26T13:30:26.718Z,56.16
2018-04-26T13:31:33.000Z,55.58
2018-04-26T13:32:39.319Z,56.79
2018-04-26T13:33:45.614Z,55.30
2018-04-26T13:34:51.969Z,54.04
2018-04-26T13:35:58.263Z,55.02
2018-04-26T13:37:04.608Z,54.98
2018-04-26T13:38:10.890Z,55.32
2018-04-26T13:39:17.220Z,52.56
2018-04-26T13:40:23.503Z,53.00
2018-04-26T13:41:31.480Z,53.50
2018-04-26T13:42:40.666Z,53.54
2018-04-26T13:43:47.038Z,52.70
2018-04-26T13:44:53.879Z,52.50
2018-04-26T13:46:00.094Z,53.11
2018-04-26T13:47:06.596Z,54.97
2018-04-26T13:48:12.675Z,52.50
2018-04-26T13:49:19.058Z,52.45
2018-04-26T13:50:25.461Z,51.42
2018-04-26T13:51:31.537Z,51.85
2018-04-26T13:52:37.740Z,52.09
2018-04-26T13:53:44.046Z,51.96
2018-04-26T13:54:51.676Z,51.76
2018-04-26T13:55:58.027Z,52.00
2018-04-26T13:57:05.775Z,53.07
2018-04-26T13:58:13.269Z,54.54
2018-04-26T13:59:19.602Z,52.87
2018-04-26T14:00:25.935Z,53.25
2018-04-26T14:01:32.642Z,53.07
2018-04-26T14:02:38.955Z,53.16
2018-04-26T14:03:45.276Z,54.12
2018-04-26T14:04:51.577Z,53.72
2018-04-26T14:06:04.133Z,53.20
2018-04-26T14:07:15.441Z,51.83
2018-04-26T14:08:21.802Z,52.01
2018-04-26T14:09:28.115Z,51.90
2018-04-26T14:10:34.439Z,52.34
2018-04-26T14:11:40.784Z,52.16
2018-04-26T14:12:48.339Z,52.63
2018-04-26T14:13:56.569Z,52.60
2018-04-26T14:15:03.272Z,53.66
2018-04-26T14:16:09.587Z,53.07
2018-04-26T14:17:15.947Z,53.13
2018-04-26T14:18:22.259Z,52.86
2018-04-26T14:19:28.577Z,52.81
2018-04-26T14:20:34.907Z,52.78
2018-04-26T14:21:41.231Z,52.64